Disclaimer

Please do not use the information listed here in-flight or in-navigation, as they are not provided to us by the airports but are provided by volunteers, so they might be outdated.

Search


Regions


Airport information page

Radio informations:
Tower (TWR) - 118.1 MHz
SAN ANDRES RDO - 6532 MHz
PANAMA CNTR - 120.3 MHz
Automatic Terminal Information Service (ATIS) - 113.3 MHz
SAN ANDRES APP - 119.3 MHz

Airport informations:
Latitude: 12° 35' 00.94" N
Longitude: 081° 42' 40.29" W
Elevation: 19 feet - 6 meters
Operating hours: Remarks
Operating agency: Military-civil joint use airport
Timezone: UTC-5
Fuel: N/A

Runway information:
06/24 - 7808 x 148 feet< - >2380 x 45 meters

Recent METARs:
SKSP 210600Z 05013KT 9999 FEW017 BKN200 28/25 A2989 REDZ
SKSP 210600Z 05013KT 9999 FEW017 BKN200 28/25 A2989 REDZ
SKSP 210700Z 05011KT 9999 FEW017 BKN200 28/25 A2987

Airport on the map: